sensor_id;sensor_type;location;lat;lon;timestamp;pressure;altitude;pressure_sealevel;temperature;humidity
22389;BME280;11362;48.102;11.620;2023-06-14T00:00:43;94787.19;;;24.57;28.65
22389;BME280;11362;48.102;11.620;2023-06-14T00:03:08;94780.09;;;24.56;28.91
22389;BME280;11362;48.102;11.620;2023-06-14T00:05:33;94781.72;;;24.53;28.91
22389;BME280;11362;48.102;11.620;2023-06-14T00:07:59;94790.78;;;24.57;28.98
22389;BME280;11362;48.102;11.620;2023-06-14T00:10:24;94781.66;;;24.57;28.97
22389;BME280;11362;48.102;11.620;2023-06-14T00:12:50;94783.63;;;24.56;28.97
22389;BME280;11362;48.102;11.620;2023-06-14T00:15:15;94786.41;;;24.56;29.00
22389;BME280;11362;48.102;11.620;2023-06-14T00:17:41;94784.84;;;24.55;28.95
22389;BME280;11362;48.102;11.620;2023-06-14T00:20:06;94780.84;;;24.56;28.92
22389;BME280;11362;48.102;11.620;2023-06-14T00:22:32;94779.72;;;24.54;29.00
22389;BME280;11362;48.102;11.620;2023-06-14T00:24:57;94781.72;;;24.53;29.13
22389;BME280;11362;48.102;11.620;2023-06-14T00:27:22;94775.81;;;24.51;29.06
22389;BME280;11362;48.102;11.620;2023-06-14T00:29:48;94774.59;;;24.52;29.22
22389;BME280;11362;48.102;11.620;2023-06-14T00:32:13;94772.63;;;24.53;29.15
22389;BME280;11362;48.102;11.620;2023-06-14T00:34:38;94774.59;;;24.52;29.13
22389;BME280;11362;48.102;11.620;2023-06-14T00:37:04;94773.03;;;24.51;29.12
22389;BME280;11362;48.102;11.620;2023-06-14T00:39:29;94770.34;;;24.48;29.17
22389;BME280;11362;48.102;11.620;2023-06-14T00:41:54;94778.59;;;24.51;29.31
22389;BME280;11362;48.102;11.620;2023-06-14T00:44:20;94777.03;;;24.50;29.33
22389;BME280;11362;48.102;11.620;2023-06-14T00:46:45;94775.47;;;24.49;29.24
22389;BME280;11362;48.102;11.620;2023-06-14T00:49:12;94774.69;;;24.49;29.26
22389;BME280;11362;48.102;11.620;2023-06-14T00:51:38;94768.34;;;24.48;29.33
22389;BME280;11362;48.102;11.620;2023-06-14T00:54:03;94773.13;;;24.48;29.08
22389;BME280;11362;48.102;11.620;2023-06-14T00:56:29;94773.13;;;24.48;29.03
22389;BME280;11362;48.102;11.620;2023-06-14T00:58:55;94777.13;;;24.47;29.25
22389;BME280;11362;48.102;11.620;2023-06-14T01:01:21;94772.78;;;24.46;29.24
22389;BME280;11362;48.102;11.620;2023-06-14T01:03:46;94773.56;;;24.46;29.21
22389;BME280;11362;48.102;11.620;2023-06-14T01:06:32;94770.09;;;24.42;29.24
22389;BME280;11362;48.102;11.620;2023-06-14T01:09:30;94775.56;;;24.46;29.08
22389;BME280;11362;48.102;11.620;2023-06-14T01:14:34;94776.00;;;24.44;29.21
22389;BME280;11362;48.102;11.620;2023-06-14T01:17:01;94782.75;;;24.43;28.99
22389;BME280;11362;48.102;11.620;2023-06-14T01:19:27;94780.75;;;24.44;29.17
22389;BME280;11362;48.102;11.620;2023-06-14T01:21:52;94775.66;;;24.42;29.04
22389;BME280;11362;48.102;11.620;2023-06-14T01:24:17;94766.53;;;24.42;28.98
22389;BME280;11362;48.102;11.620;2023-06-14T01:26:43;94764.19;;;24.40;28.95
22389;BME280;11362;48.102;11.620;2023-06-14T01:29:08;94774.06;;;24.41;29.12
22389;BME280;11362;48.102;11.620;2023-06-14T01:31:34;94772.88;;;24.42;29.03
22389;BME280;11362;48.102;11.620;2023-06-14T01:33:59;94762.63;;;24.39;29.06
22389;BME280;11362;48.102;11.620;2023-06-14T01:36:26;94760.19;;;24.41;28.98
22389;BME280;11362;48.102;11.620;2023-06-14T01:38:53;94762.28;;;24.37;29.01
22389;BME280;11362;48.102;11.620;2023-06-14T01:41:19;94762.63;;;24.39;28.98
22389;BME280;11362;48.102;11.620;2023-06-14T01:43:45;94758.28;;;24.38;28.97
22389;BME280;11362;48.102;11.620;2023-06-14T01:46:13;94759.09;;;24.39;29.00
22389;BME280;11362;48.102;11.620;2023-06-14T01:48:40;94756.31;;;24.39;28.98
22389;BME280;11362;48.102;11.620;2023-06-14T01:51:05;94757.50;;;24.38;28.98
22389;BME280;11362;48.102;11.620;2023-06-14T01:53:30;94754.28;;;24.39;29.03
22389;BME280;11362;48.102;11.620;2023-06-14T01:55:56;94755.19;;;24.36;28.92
22389;BME280;11362;48.102;11.620;2023-06-14T01:58:21;94759.94;;;24.36;29.09
22389;BME280;11362;48.102;11.620;2023-06-14T02:00:46;94760.72;;;24.36;29.28
22389;BME280;11362;48.102;11.620;2023-06-14T02:03:12;94761.50;;;24.37;29.04
22389;BME280;11362;48.102;11.620;2023-06-14T02:05:37;94756.81;;;24.34;29.18
22389;BME280;11362;48.102;11.620;2023-06-14T02:08:02;94757.59;;;24.34;29.18
22389;BME280;11362;48.102;11.620;2023-06-14T02:10:28;94756.03;;;24.33;29.18
22389;BME280;11362;48.102;11.620;2023-06-14T02:12:53;94752.13;;;24.31;29.02
22389;BME280;11362;48.102;11.620;2023-06-14T02:15:18;94750.94;;;24.32;29.02
22389;BME280;11362;48.102;11.620;2023-06-14T02:17:44;94761.56;;;24.33;29.04
22389;BME280;11362;48.102;11.620;2023-06-14T02:20:10;94758.81;;;24.33;29.01
22389;BME280;11362;48.102;11.620;2023-06-14T02:22:35;94760.81;;;24.33;29.03
22389;BME280;11362;48.102;11.620;2023-06-14T02:25:00;94755.69;;;24.31;28.96
22389;BME280;11362;48.102;11.620;2023-06-14T02:27:26;94751.69;;;24.32;29.00
22389;BME280;11362;48.102;11.620;2023-06-14T02:29:51;94748.25;;;24.28;28.97
22389;BME280;11362;48.102;11.620;2023-06-14T02:32:16;94748.91;;;24.32;28.90
22389;BME280;11362;48.102;11.620;2023-06-14T02:34:42;94744.59;;;24.31;28.96
22389;BME280;11362;48.102;11.620;2023-06-14T02:37:07;94753.72;;;24.32;28.93
22389;BME280;11362;48.102;11.620;2023-06-14T02:39:32;94753.72;;;24.32;28.73
22389;BME280;11362;48.102;11.620;2023-06-14T02:41:58;94756.56;;;24.28;28.78
22389;BME280;11362;48.102;11.620;2023-06-14T02:44:26;94757.75;;;24.27;28.96
22389;BME280;11362;48.102;11.620;2023-06-14T02:46:52;94753.41;;;24.26;28.81
22389;BME280;11362;48.102;11.620;2023-06-14T02:49:18;94757.00;;;24.27;28.90
22389;BME280;11362;48.102;11.620;2023-06-14T02:51:43;94750.66;;;24.26;29.01
22389;BME280;11362;48.102;11.620;2023-06-14T02:54:08;94753.88;;;24.25;28.89
22389;BME280;11362;48.102;11.620;2023-06-14T02:56:34;94749.09;;;24.25;28.87
22389;BME280;11362;48.102;11.620;2023-06-14T02:58:59;94757.41;;;24.25;29.15
22389;BME280;11362;48.102;11.620;2023-06-14T03:01:27;94763.41;;;24.24;29.00
22389;BME280;11362;48.102;11.620;2023-06-14T03:03:52;94756.28;;;24.23;29.01
22389;BME280;11362;48.102;11.620;2023-06-14T03:06:18;94766.97;;;24.24;29.02
22389;BME280;11362;48.102;11.620;2023-06-14T03:08:43;94766.97;;;24.24;29.09
22389;BME280;11362;48.102;11.620;2023-06-14T03:11:08;94761.84;;;24.23;28.88
22389;BME280;11362;48.102;11.620;2023-06-14T03:13:34;94761.84;;;24.23;28.99
22389;BME280;11362;48.102;11.620;2023-06-14T03:16:00;94771.38;;;24.22;28.99
22389;BME280;11362;48.102;11.620;2023-06-14T03:18:25;94765.41;;;24.23;29.05
22389;BME280;11362;48.102;11.620;2023-06-14T03:20:51;94750.31;;;24.24;29.11
22389;BME280;11362;48.102;11.620;2023-06-14T03:23:16;94753.41;;;24.26;29.16
22389;BME280;11362;48.102;11.620;2023-06-14T03:25:42;94760.03;;;24.32;29.25
22389;BME280;11362;48.102;11.620;2023-06-14T03:28:07;94770.28;;;24.35;29.21
22389;BME280;11362;48.102;11.620;2023-06-14T03:30:33;94764.28;;;24.37;29.49
22389;BME280;11362;48.102;11.620;2023-06-14T03:32:58;94767.84;;;24.37;29.46
22389;BME280;11362;48.102;11.620;2023-06-14T03:35:23;94759.09;;;24.39;29.54
22389;BME280;11362;48.102;11.620;2023-06-14T03:37:49;94762.97;;;24.41;29.59
22389;BME280;11362;48.102;11.620;2023-06-14T03:40:16;94763.75;;;24.42;29.63
22389;BME280;11362;48.102;11.620;2023-06-14T03:42:41;94763.31;;;24.43;29.76
22389;BME280;11362;48.102;11.620;2023-06-14T03:45:07;94764.09;;;24.44;29.86
22389;BME280;11362;48.102;11.620;2023-06-14T03:47:33;94765.66;;;24.45;29.73
22389;BME280;11362;48.102;11.620;2023-06-14T03:49:59;94772.78;;;24.46;29.89
22389;BME280;11362;48.102;11.620;2023-06-14T03:52:24;94764.47;;;24.46;29.93
22389;BME280;11362;48.102;11.620;2023-06-14T03:54:49;94766.03;;;24.47;30.10
22389;BME280;11362;48.102;11.620;2023-06-14T03:57:15;94769.13;;;24.49;30.01
22389;BME280;11362;48.102;11.620;2023-06-14T03:59:40;94775.47;;;24.49;30.09
22389;BME280;11362;48.102;11.620;2023-06-14T04:02:06;94794.91;;;24.49;30.23
22389;BME280;11362;48.102;11.620;2023-06-14T04:04:31;94790.91;;;24.50;30.30
22389;BME280;11362;48.102;11.620;2023-06-14T04:06:56;94794.47;;;24.51;30.26
22389;BME280;11362;48.102;11.620;2023-06-14T04:09:23;94792.91;;;24.50;30.26
22389;BME280;11362;48.102;11.620;2023-06-14T04:11:49;94794.47;;;24.51;30.15
22389;BME280;11362;48.102;11.620;2023-06-14T04:14:14;94800.00;;;24.51;30.48
22389;BME280;11362;48.102;11.620;2023-06-14T04:16:39;94804.78;;;24.50;30.44
22389;BME280;11362;48.102;11.620;2023-06-14T04:19:04;94810.69;;;24.52;30.36
22389;BME280;11362;48.102;11.620;2023-06-14T04:21:30;94808.72;;;24.53;30.63
22389;BME280;11362;48.102;11.620;2023-06-14T04:23:55;94813.81;;;24.54;30.39
22389;BME280;11362;48.102;11.620;2023-06-14T04:26:21;94815.81;;;24.54;30.54
22389;BME280;11362;48.102;11.620;2023-06-14T04:28:47;94813.47;;;24.52;30.50
22389;BME280;11362;48.102;11.620;2023-06-14T04:31:12;94814.25;;;24.53;30.79
22389;BME280;11362;48.102;11.620;2023-06-14T04:33:38;94821.38;;;24.54;31.00
22389;BME280;11362;48.102;11.620;2023-06-14T04:36:03;94823.72;;;24.55;30.83
22389;BME280;11362;48.102;11.620;2023-06-14T04:38:28;94813.41;;;24.56;30.87
22389;BME280;11362;48.102;11.620;2023-06-14T04:40:54;94810.63;;;24.56;30.92
22389;BME280;11362;48.102;11.620;2023-06-14T04:43:19;94807.84;;;24.56;30.95
22389;BME280;11362;48.102;11.620;2023-06-14T04:45:44;94798.72;;;24.55;30.80
22389;BME280;11362;48.102;11.620;2023-06-14T04:48:10;94812.63;;;24.55;30.89
22389;BME280;11362;48.102;11.620;2023-06-14T04:50:35;94812.19;;;24.57;30.91
22389;BME280;11362;48.102;11.620;2023-06-14T04:53:00;94819.31;;;24.58;30.95
22389;BME280;11362;48.102;11.620;2023-06-14T04:55:25;94840.75;;;24.57;31.04
22389;BME280;11362;48.102;11.620;2023-06-14T04:57:51;94840.38;;;24.55;31.29
22389;BME280;11362;48.102;11.620;2023-06-14T05:00:16;94839.53;;;24.58;31.37
22389;BME280;11362;48.102;11.620;2023-06-14T05:02:41;94839.53;;;24.58;31.34
22389;BME280;11362;48.102;11.620;2023-06-14T05:05:07;94844.22;;;24.61;31.27
22389;BME280;11362;48.102;11.620;2023-06-14T05:07:32;94855.31;;;24.61;31.49
22389;BME280;11362;48.102;11.620;2023-06-14T05:09:57;94846.56;;;24.63;31.79
22389;BME280;11362;48.102;11.620;2023-06-14T05:12:23;94848.47;;;24.66;31.98
22389;BME280;11362;48.102;11.620;2023-06-14T05:14:48;94851.69;;;24.64;32.18
22389;BME280;11362;48.102;11.620;2023-06-14T05:17:13;94855.16;;;24.68;32.42
22389;BME280;11362;48.102;11.620;2023-06-14T05:19:39;94854.72;;;24.70;32.37
22389;BME280;11362;48.102;11.620;2023-06-14T05:22:04;94858.25;;;24.70;32.71
22389;BME280;11362;48.102;11.620;2023-06-14T05:24:29;94861.03;;;24.70;32.82
22389;BME280;11362;48.102;11.620;2023-06-14T05:26:54;94864.63;;;24.71;32.78
22389;BME280;11362;48.102;11.620;2023-06-14T05:29:20;94874.06;;;24.73;32.76
22389;BME280;11362;48.102;11.620;2023-06-14T05:31:45;94858.63;;;24.72;32.98
22389;BME280;11362;48.102;11.620;2023-06-14T05:34:10;94862.97;;;24.73;33.24
22389;BME280;11362;48.102;11.620;2023-06-14T05:36:36;94857.41;;;24.73;33.07
22389;BME280;11362;48.102;11.620;2023-06-14T05:39:01;94858.97;;;24.74;33.23
22389;BME280;11362;48.102;11.620;2023-06-14T05:41:27;94862.97;;;24.73;33.13
22389;BME280;11362;48.102;11.620;2023-06-14T05:43:53;94870.06;;;24.74;33.16
22389;BME280;11362;48.102;11.620;2023-06-14T05:46:19;94867.31;;;24.74;33.39
22389;BME280;11362;48.102;11.620;2023-06-14T05:48:45;94867.31;;;24.74;33.37
22389;BME280;11362;48.102;11.620;2023-06-14T05:51:10;94877.63;;;24.74;33.22
22389;BME280;11362;48.102;11.620;2023-06-14T05:53:35;94864.53;;;24.74;33.15
22389;BME280;11362;48.102;11.620;2023-06-14T05:56:01;94866.50;;;24.74;32.52
22389;BME280;11362;48.102;11.620;2023-06-14T05:58:26;94865.41;;;24.71;33.32
22389;BME280;11362;48.102;11.620;2023-06-14T06:00:51;94865.41;;;24.71;33.50
22389;BME280;11362;48.102;11.620;2023-06-14T06:03:17;94861.41;;;24.72;33.54
22389;BME280;11362;48.102;11.620;2023-06-14T06:05:42;94871.72;;;24.72;33.42
22389;BME280;11362;48.102;11.620;2023-06-14T06:08:07;94853.06;;;24.72;33.35
22389;BME280;11362;48.102;11.620;2023-06-14T06:10:32;94854.28;;;24.71;32.95
22389;BME280;11362;48.102;11.620;2023-06-14T06:12:58;94858.63;;;24.72;32.83
22389;BME280;11362;48.102;11.620;2023-06-14T06:15:23;94866.97;;;24.72;32.93
22389;BME280;11362;48.102;11.620;2023-06-14T06:17:48;94862.63;;;24.71;33.11
22389;BME280;11362;48.102;11.620;2023-06-14T06:20:14;94865.03;;;24.69;33.15
22389;BME280;11362;48.102;11.620;2023-06-14T06:22:39;94870.97;;;24.71;33.20
22389;BME280;11362;48.102;11.620;2023-06-14T06:25:05;94873.38;;;24.69;33.14
22389;BME280;11362;48.102;11.620;2023-06-14T06:27:30;94872.16;;;24.70;33.02
22389;BME280;11362;48.102;11.620;2023-06-14T06:29:56;94872.16;;;24.70;32.84
22389;BME280;11362;48.102;11.620;2023-06-14T06:32:21;94882.06;;;24.71;32.80
22389;BME280;11362;48.102;11.620;2023-06-14T06:34:47;94881.28;;;24.71;32.90
22389;BME280;11362;48.102;11.620;2023-06-14T06:37:13;94883.25;;;24.70;32.80
22389;BME280;11362;48.102;11.620;2023-06-14T06:39:38;94873.38;;;24.69;32.69
22389;BME280;11362;48.102;11.620;2023-06-14T06:42:04;94881.28;;;24.71;32.74
22389;BME280;11362;48.102;11.620;2023-06-14T06:44:29;94880.47;;;24.70;32.55
22389;BME280;11362;48.102;11.620;2023-06-14T06:46:54;94877.69;;;24.70;32.86
22389;BME280;11362;48.102;11.620;2023-06-14T06:49:20;94884.84;;;24.71;32.87
22389;BME280;11362;48.102;11.620;2023-06-14T06:51:59;94886.41;;;24.72;32.77
22389;BME280;11362;48.102;11.620;2023-06-14T06:54:24;94894.75;;;24.72;33.16
22389;BME280;11362;48.102;11.620;2023-06-14T06:56:50;94885.94;;;24.74;32.97
22389;BME280;11362;48.102;11.620;2023-06-14T06:59:15;94890.31;;;24.75;33.16
22389;BME280;11362;48.102;11.620;2023-06-14T07:01:41;94899.41;;;24.75;33.09
22389;BME280;11362;48.102;11.620;2023-06-14T07:04:06;94883.53;;;24.76;33.34
22389;BME280;11362;48.102;11.620;2023-06-14T07:06:31;94884.31;;;24.76;33.53
22389;BME280;11362;48.102;11.620;2023-06-14T07:08:57;94889.88;;;24.76;33.25
22389;BME280;11362;48.102;11.620;2023-06-14T07:11:22;94890.22;;;24.78;33.19
22389;BME280;11362;48.102;11.620;2023-06-14T07:13:47;94885.09;;;24.77;33.31
22389;BME280;11362;48.102;11.620;2023-06-14T07:16:13;94885.44;;;24.79;33.43
22389;BME280;11362;48.102;11.620;2023-06-14T07:18:38;94887.47;;;24.78;33.41
22389;BME280;11362;48.102;11.620;2023-06-14T07:21:03;94884.69;;;24.78;33.24
22389;BME280;11362;48.102;11.620;2023-06-14T07:23:30;94896.88;;;24.81;33.58
22389;BME280;11362;48.102;11.620;2023-06-14T07:25:55;94898.09;;;24.80;33.52
22389;BME280;11362;48.102;11.620;2023-06-14T07:28:20;94904.81;;;24.82;33.50
22389;BME280;11362;48.102;11.620;2023-06-14T07:30:46;94871.88;;;24.81;33.53
22389;BME280;11362;48.102;11.620;2023-06-14T07:33:11;94874.31;;;24.79;33.55
22389;BME280;11362;48.102;11.620;2023-06-14T07:35:36;94882.56;;;24.82;33.50
22389;BME280;11362;48.102;11.620;2023-06-14T07:38:02;94880.59;;;24.83;33.47
22389;BME280;11362;48.102;11.620;2023-06-14T07:40:27;94903.25;;;24.81;33.72
22389;BME280;11362;48.102;11.620;2023-06-14T07:42:52;94908.78;;;24.81;33.49
22389;BME280;11362;48.102;11.620;2023-06-14T07:45:18;94903.25;;;24.81;33.44
22389;BME280;11362;48.102;11.620;2023-06-14T07:47:43;94900.88;;;24.80;33.27
22389;BME280;11362;48.102;11.620;2023-06-14T07:50:08;94908.78;;;24.81;33.53
22389;BME280;11362;48.102;11.620;2023-06-14T07:52:34;94910.78;;;24.81;33.44
22389;BME280;11362;48.102;11.620;2023-06-14T07:54:59;94911.22;;;24.79;33.24
22389;BME280;11362;48.102;11.620;2023-06-14T07:57:24;94907.66;;;24.79;33.15
22389;BME280;11362;48.102;11.620;2023-06-14T07:59:50;94906.09;;;24.78;33.35
22389;BME280;11362;48.102;11.620;2023-06-14T08:02:15;94910.44;;;24.79;33.20
22389;BME280;11362;48.102;11.620;2023-06-14T08:04:41;94904.88;;;24.79;33.15
22389;BME280;11362;48.102;11.620;2023-06-14T08:07:06;94895.78;;;24.78;33.19
22389;BME280;11362;48.102;11.620;2023-06-14T08:09:31;94898.56;;;24.78;33.38
22389;BME280;11362;48.102;11.620;2023-06-14T08:11:57;94902.09;;;24.79;33.09
22389;BME280;11362;48.102;11.620;2023-06-14T08:14:22;94906.91;;;24.78;33.33
22389;BME280;11362;48.102;11.620;2023-06-14T08:16:47;94904.13;;;24.78;33.12
22389;BME280;11362;48.102;11.620;2023-06-14T08:19:13;94900.97;;;24.76;33.06
22389;BME280;11362;48.102;11.620;2023-06-14T08:21:38;94903.31;;;24.78;33.07
22389;BME280;11362;48.102;11.620;2023-06-14T08:24:03;94908.09;;;24.77;33.00
22389;BME280;11362;48.102;11.620;2023-06-14T08:26:29;94912.78;;;24.80;33.10
22389;BME280;11362;48.102;11.620;2023-06-14T08:28:55;94919.56;;;24.79;32.93
22389;BME280;11362;48.102;11.620;2023-06-14T08:31:21;94916.78;;;24.79;33.16
22389;BME280;11362;48.102;11.620;2023-06-14T08:33:46;94912.00;;;24.80;33.02
22389;BME280;11362;48.102;11.620;2023-06-14T08:36:12;94919.56;;;24.79;33.06
22389;BME280;11362;48.102;11.620;2023-06-14T08:38:37;94923.09;;;24.80;32.78
22389;BME280;11362;48.102;11.620;2023-06-14T08:41:05;94923.19;;;24.76;32.90
22389;BME280;11362;48.102;11.620;2023-06-14T08:43:30;94926.34;;;24.78;32.98
22389;BME280;11362;48.102;11.620;2023-06-14T08:45:58;94927.09;;;24.79;32.69
22389;BME280;11362;48.102;11.620;2023-06-14T08:48:26;94927.09;;;24.79;32.81
22389;BME280;11362;48.102;11.620;2023-06-14T08:50:54;94925.63;;;24.74;32.91
22389;BME280;11362;48.102;11.620;2023-06-14T08:53:21;94927.09;;;24.79;32.83
22389;BME280;11362;48.102;11.620;2023-06-14T08:55:47;94922.78;;;24.78;32.72
22389;BME280;11362;48.102;11.620;2023-06-14T08:58:12;94918.44;;;24.77;32.81
22389;BME280;11362;48.102;11.620;2023-06-14T09:00:37;94919.19;;;24.77;32.72
22389;BME280;11362;48.102;11.620;2023-06-14T09:03:03;94924.75;;;24.77;32.82
22389;BME280;11362;48.102;11.620;2023-06-14T09:05:28;94914.09;;;24.76;32.75
22389;BME280;11362;48.102;11.620;2023-06-14T09:07:54;94923.19;;;24.76;32.69
22389;BME280;11362;48.102;11.620;2023-06-14T09:10:20;94919.19;;;24.77;32.48
22389;BME280;11362;48.102;11.620;2023-06-14T09:12:46;94918.09;;;24.75;32.53
22389;BME280;11362;48.102;11.620;2023-06-14T09:15:11;94921.22;;;24.77;32.50
22389;BME280;11362;48.102;11.620;2023-06-14T09:17:37;94929.13;;;24.78;32.83
22389;BME280;11362;48.102;11.620;2023-06-14T09:20:04;94924.31;;;24.79;32.73
22389;BME280;11362;48.102;11.620;2023-06-14T09:22:30;94924.75;;;24.77;32.77
22389;BME280;11362;48.102;11.620;2023-06-14T09:24:56;94929.13;;;24.78;32.46
22389;BME280;11362;48.102;11.620;2023-06-14T09:27:21;94935.88;;;24.77;32.55
22389;BME280;11362;48.102;11.620;2023-06-14T09:29:46;94935.44;;;24.79;32.58
22389;BME280;11362;48.102;11.620;2023-06-14T09:32:12;94937.47;;;24.78;32.48
22389;BME280;11362;48.102;11.620;2023-06-14T09:34:37;94924.31;;;24.79;32.18
22389;BME280;11362;48.102;11.620;2023-06-14T09:37:02;94927.91;;;24.79;32.71
22389;BME280;11362;48.102;11.620;2023-06-14T09:39:28;94931.44;;;24.80;32.74
22389;BME280;11362;48.102;11.620;2023-06-14T09:41:53;94936.56;;;24.81;32.58
22389;BME280;11362;48.102;11.620;2023-06-14T09:44:19;94935.00;;;24.80;32.63
22389;BME280;11362;48.102;11.620;2023-06-14T09:46:44;94934.22;;;24.80;32.76
22389;BME280;11362;48.102;11.620;2023-06-14T09:49:10;94940.56;;;24.80;32.84
22389;BME280;11362;48.102;11.620;2023-06-14T09:51:45;94928.75;;;24.76;33.01
22389;BME280;11362;48.102;11.620;2023-06-14T09:54:15;94941.41;;;24.77;33.04
22389;BME280;11362;48.102;11.620;2023-06-14T09:56:41;94946.13;;;24.80;33.50
22389;BME280;11362;48.102;11.620;2023-06-14T09:59:09;94953.50;;;24.87;34.08
22389;BME280;11362;48.102;11.620;2023-06-14T10:01:41;94941.16;;;24.88;33.90
22389;BME280;11362;48.102;11.620;2023-06-14T10:04:07;94936.75;;;24.90;33.74
22389;BME280;11362;48.102;11.620;2023-06-14T10:06:36;94938.84;;;24.86;33.87
22389;BME280;11362;48.102;11.620;2023-06-14T10:09:03;94941.25;;;24.84;33.75
22389;BME280;11362;48.102;11.620;2023-06-14T10:11:29;94934.13;;;24.83;33.96
22389;BME280;11362;48.102;11.620;2023-06-14T10:13:55;94935.34;;;24.82;34.01
22389;BME280;11362;48.102;11.620;2023-06-14T10:16:45;94931.81;;;24.82;33.95
22389;BME280;11362;48.102;11.620;2023-06-14T10:19:33;94935.34;;;24.82;34.18
22389;BME280;11362;48.102;11.620;2023-06-14T10:24:37;94937.78;;;24.80;34.04
22389;BME280;11362;48.102;11.620;2023-06-14T10:27:03;94936.56;;;24.81;33.98
22389;BME280;11362;48.102;11.620;2023-06-14T10:29:31;94942.13;;;24.81;33.99
22389;BME280;11362;48.102;11.620;2023-06-14T10:31:57;94931.03;;;24.81;33.90
22389;BME280;11362;48.102;11.620;2023-06-14T10:34:24;94931.44;;;24.80;33.83
22389;BME280;11362;48.102;11.620;2023-06-14T10:37:08;94944.13;;;24.81;33.79
22389;BME280;11362;48.102;11.620;2023-06-14T10:39:40;94931.03;;;24.81;33.72
22389;BME280;11362;48.102;11.620;2023-06-14T10:42:07;94928.06;;;24.88;33.68
22389;BME280;11362;48.102;11.620;2023-06-14T10:46:59;94923.72;;;24.87;33.68
22389;BME280;11362;48.102;11.620;2023-06-14T10:49:37;94922.19;;;24.86;33.63
22389;BME280;11362;48.102;11.620;2023-06-14T10:52:02;94921.81;;;24.84;33.71
22389;BME280;11362;48.102;11.620;2023-06-14T10:54:28;94925.72;;;24.87;33.76
22389;BME280;11362;48.102;11.620;2023-06-14T10:56:53;94930.50;;;24.86;33.67
22389;BME280;11362;48.102;11.620;2023-06-14T10:59:19;94924.50;;;24.88;33.39
22389;BME280;11362;48.102;11.620;2023-06-14T11:02:13;94918.94;;;24.88;33.59
22389;BME280;11362;48.102;11.620;2023-06-14T11:04:48;94923.03;;;24.83;33.62
22389;BME280;11362;48.102;11.620;2023-06-14T11:12:36;94919.41;;;24.86;33.52
22389;BME280;11362;48.102;11.620;2023-06-14T11:15:02;94923.72;;;24.87;33.43
22389;BME280;11362;48.102;11.620;2023-06-14T11:17:27;94927.72;;;24.86;33.45
22389;BME280;11362;48.102;11.620;2023-06-14T11:20:08;94924.59;;;24.84;33.31
22389;BME280;11362;48.102;11.620;2023-06-14T11:22:41;94927.72;;;24.86;33.32
22389;BME280;11362;48.102;11.620;2023-06-14T11:25:09;94929.28;;;24.87;33.47
22389;BME280;11362;48.102;11.620;2023-06-14T11:27:34;94924.50;;;24.88;33.32
22389;BME280;11362;48.102;11.620;2023-06-14T11:29:59;94922.53;;;24.88;33.24
22389;BME280;11362;48.102;11.620;2023-06-14T11:32:25;94930.06;;;24.88;33.31
22389;BME280;11362;48.102;11.620;2023-06-14T11:34:50;94920.16;;;24.87;33.33
22389;BME280;11362;48.102;11.620;2023-06-14T11:37:15;94923.72;;;24.87;33.11
22389;BME280;11362;48.102;11.620;2023-06-14T11:39:44;94924.16;;;24.86;33.42
22389;BME280;11362;48.102;11.620;2023-06-14T11:42:14;94919.41;;;24.86;33.39
22389;BME280;11362;48.102;11.620;2023-06-14T11:44:40;94919.03;;;24.84;33.34
22389;BME280;11362;48.102;11.620;2023-06-14T11:47:05;94921.81;;;24.84;33.27
22389;BME280;11362;48.102;11.620;2023-06-14T11:49:35;94922.19;;;24.86;33.38
22389;BME280;11362;48.102;11.620;2023-06-14T11:52:01;94908.63;;;24.88;33.20
22389;BME280;11362;48.102;11.620;2023-06-14T11:54:26;94904.28;;;24.87;33.55
22389;BME280;11362;48.102;11.620;2023-06-14T11:56:51;94909.41;;;24.89;33.21
22389;BME280;11362;48.102;11.620;2023-06-14T11:59:17;94905.44;;;24.90;33.23
22389;BME280;11362;48.102;11.620;2023-06-14T12:01:43;94913.38;;;24.88;33.16
22389;BME280;11362;48.102;11.620;2023-06-14T12:04:08;94913.84;;;24.86;33.21
22389;BME280;11362;48.102;11.620;2023-06-14T12:06:34;94912.63;;;24.87;33.30
22389;BME280;11362;48.102;11.620;2023-06-14T12:08:59;94910.19;;;24.89;33.21
22389;BME280;11362;48.102;11.620;2023-06-14T12:11:31;94910.19;;;24.89;33.13
22389;BME280;11362;48.102;11.620;2023-06-14T12:13:57;94925.63;;;24.90;33.09
22389;BME280;11362;48.102;11.620;2023-06-14T12:16:30;94917.31;;;24.90;33.20
22389;BME280;11362;48.102;11.620;2023-06-14T12:18:55;94923.72;;;24.87;33.30
22389;BME280;11362;48.102;11.620;2023-06-14T12:21:22;94913.03;;;24.86;33.43
22389;BME280;11362;48.102;11.620;2023-06-14T12:23:49;94916.63;;;24.86;33.21
22389;BME280;11362;48.102;11.620;2023-06-14T12:26:18;94919.41;;;24.86;33.19
22389;BME280;11362;48.102;11.620;2023-06-14T12:28:45;94915.81;;;24.86;33.19
22389;BME280;11362;48.102;11.620;2023-06-14T12:31:11;94916.63;;;24.86;33.19
22389;BME280;11362;48.102;11.620;2023-06-14T12:33:37;94922.84;;;24.90;33.03
22389;BME280;11362;48.102;11.620;2023-06-14T12:36:06;94915.75;;;24.89;33.07
22389;BME280;11362;48.102;11.620;2023-06-14T12:38:33;94900.28;;;24.88;33.06
22389;BME280;11362;48.102;11.620;2023-06-14T12:40:58;94906.19;;;24.90;32.71
22389;BME280;11362;48.102;11.620;2023-06-14T12:43:23;94904.97;;;24.91;32.63
22389;BME280;11362;48.102;11.620;2023-06-14T12:45:49;94915.66;;;24.93;32.24
22389;BME280;11362;48.102;11.620;2023-06-14T12:48:14;94918.00;;;24.94;33.18
22389;BME280;11362;48.102;11.620;2023-06-14T12:50:39;94908.44;;;24.95;33.25
22389;BME280;11362;48.102;11.620;2023-06-14T12:53:05;94908.03;;;24.97;32.85
22389;BME280;11362;48.102;11.620;2023-06-14T12:55:31;94906.00;;;24.97;32.92
22389;BME280;11362;48.102;11.620;2023-06-14T12:57:57;94919.47;;;24.99;32.56